Asian Vision — D8CU — position and weather

sailwx.info

Track history (hours):
 
Tides and Currents Weather Stations Pressure Air Temp Water Temp Dewpoint Dewpoint Depression Visibility Wind Speed Wind Dir Waves Ship Positions

Asian Vision

Last reported at 2017-Sep-20 07:18 UTC. Time now 2017-Sep-23 16:28 UTC.
Position N 46°13' W 125°29'.

Length 200 m; draft 7.7 m.

Type: Cargo ship. MMSI: 441992000.

Date/timePositionNaut miles runAvg speedWind from/ knotsBaromVisibWave heightAir tempDewpointWater temp
2017-Sep-20 07:18N 46°13' W 125°29'517.2
2017-Sep-20 07:00N 46°13' W 125°22'816.7
2017-Sep-20 06:30N 46°12' W 125°10'916.6
2017-Sep-20 05:59N 46°12' W 124°58'816.8
2017-Sep-20 05:30N 46°12' W 124°46'816.9
2017-Sep-20 05:00N 46°12' W 124°34'816.4
2017-Sep-20 04:30N 46°12' W 124°22'816.2
2017-Sep-20 04:00N 46°13' W 124°10'612.1
2017-Sep-20 03:30N 46°15' W 124°03'714.8
2017-Sep-20 03:01N 46°11' W 123°53'510.4
2017-Sep-20 02:30N 46°13' W 123°46'917.1
2017-Sep-20 02:01N 46°15' W 123°34'612.8
2017-Sep-20 01:30N 46°14' W 123°25'612.9
2017-Sep-20 01:01N 46°09' W 123°20'816.9
2017-Sep-20 00:30N 46°11' W 123°08'815.7
2017-Sep-20 00:00N 46°07' W 122°59'612.1
2017-Sep-19 23:30N 46°03' W 122°53'612.1
2017-Sep-19 23:00N 45°57' W 122°49'713.1
2017-Sep-19 22:30N 45°51' W 122°47'713.3
2017-Sep-19 22:00N 45°44' W 122°46'510.9
2017-Sep-19 21:31N 45°39' W 122°45'0 0.1
2017-Sep-19 20:58N 45°39' W 122°45'0 0.0
2017-Sep-19 20:28N 45°39' W 122°45'0 0.0
2017-Sep-19 19:58N 45°39' W 122°45'0 0.0
2017-Sep-19 19:28N 45°39' W 122°45'0 0.0
2017-Sep-19 18:58N 45°39' W 122°45'0 0.0
2017-Sep-19 18:28N 45°39' W 122°45'0 0.0
2017-Sep-19 17:58N 45°39' W 122°45'0 0.0
2017-Sep-19 17:28N 45°39' W 122°45'0 0.0
2017-Sep-19 16:55N 45°39' W 122°45'0 0.0
2017-Sep-19 16:25N 45°39' W 122°45'0 0.0
2017-Sep-19 15:52N 45°39' W 122°45'0 0.0
2017-Sep-19 15:28N 45°39' W 122°45'0 0.0
2017-Sep-19 14:58N 45°39' W 122°45'0 0.0
2017-Sep-19 14:22N 45°39' W 122°45'0 0.0
2017-Sep-19 13:58N 45°39' W 122°45'41810.3
2017-Sep-17 21:23N 38°47' W 124°23'1018.3
2017-Sep-17 20:49N 38°39' W 124°16'618.6
2017-Sep-17 20:28N 38°33' W 124°12'818.1
2017-Sep-17 20:00N 38°26' W 124°06'918.2
2017-Sep-17 19:30N 38°18' W 124°01'918.2
2017-Sep-17 19:00N 38°10' W 123°56'918.4
2017-Sep-17 18:30N 38°02' W 123°50'918.2
2017-Sep-17 18:00N 37°54' W 123°44'918.0
2017-Sep-17 17:30N 37°46' W 123°39'917.9
2017-Sep-17 17:00N 37°38' W 123°33'917.7
2017-Sep-17 16:30N 37°30' W 123°28'918.1
2017-Sep-17 16:00N 37°22' W 123°22'918.2
2017-Sep-17 15:30N 37°14' W 123°17'918.1
2017-Sep-17 15:00N 37°06' W 123°11'918.2
2017-Sep-17 14:30N 36°58' W 123°06'918.4
2017-Sep-17 14:00N 36°50' W 123°00'918.4
2017-Sep-17 13:30N 36°42' W 122°54'918.3
2017-Sep-17 13:00N 36°34' W 122°49'918.5
2017-Sep-17 12:30N 36°26' W 122°43'918.4
2017-Sep-17 12:01N 36°18' W 122°38'918.2
2017-Sep-17 11:30N 36°10' W 122°32'918.0
2017-Sep-17 11:00N 36°02' W 122°27'917.9
2017-Sep-17 10:30N 35°55' W 122°22'917.8
2017-Sep-17 10:00N 35°47' W 122°17'1018.0
2017-Sep-17 09:27N 35°38' W 122°10'817.9
2017-Sep-17 09:00N 35°31' W 122°05'2418.8
2017-Sep-17 07:44N 35°10' W 121°51'519.0
2017-Sep-17 07:29N 35°06' W 121°49'918.9
2017-Sep-17 07:00N 34°58' W 121°43'918.5
2017-Sep-17 06:30N 34°50' W 121°38'918.5
2017-Sep-17 06:00N 34°42' W 121°32'918.4
2017-Sep-17 05:31N 34°34' W 121°26'1019.0
2017-Sep-17 05:00N 34°32' W 121°14'919.0
2017-Sep-17 04:31N 34°29' W 121°04'1018.9
2017-Sep-17 04:00N 34°27' W 120°52'918.9
2017-Sep-17 03:30N 34°24' W 120°41'919.0
2017-Sep-17 03:00N 34°21' W 120°30'1019.2
2017-Sep-17 02:30N 34°19' W 120°19'1019.2
2017-Sep-17 02:00N 34°16' W 120°08'1118.4
2017-Sep-17 01:25N 34°14' W 119°55'818.0
2017-Sep-17 01:00N 34°12' W 119°47'918.4
2017-Sep-17 00:30N 34°09' W 119°36'918.4
2017-Sep-17 00:00N 34°07' W 119°25'816.7
2017-Sep-16 23:30N 34°05' W 119°15'4 7.1
2017-Sep-16 22:55N 34°09' W 119°12'0 0.0
2017-Sep-16 22:19N 34°09' W 119°12'0 0.0
2017-Sep-16 21:49N 34°09' W 119°12'0 0.0
2017-Sep-16 21:28N 34°09' W 119°12'0 0.0
2017-Sep-16 20:58N 34°09' W 119°12'0 0.0
2017-Sep-16 19:37N 34°09' W 119°12'0 0.0
2017-Sep-16 19:19N 34°09' W 119°12'0 0.0
2017-Sep-16 18:58N 34°09' W 119°12'0 0.0
2017-Sep-16 18:25N 34°09' W 119°12'0 0.0
2017-Sep-16 17:46N 34°09' W 119°12'0 0.0
2017-Sep-16 16:55N 34°09' W 119°12'0 0.0
2017-Sep-16 16:22N 34°09' W 119°12'0 0.1
2017-Sep-16 15:55N 34°09' W 119°12'0 0.1
2017-Sep-16 15:25N 34°09' W 119°12'0 0.0
2017-Sep-16 13:22N 34°09' W 119°12'0 0.0
2017-Sep-16 12:43N 34°09' W 119°12'0 0.0
2017-Sep-16 12:22N 34°09' W 119°12'0 0.0
2017-Sep-16 11:55N 34°09' W 119°12'0 0.0
2017-Sep-16 11:28N 34°09' W 119°12'0 0.0
2017-Sep-16 10:58N 34°09' W 119°12'0 0.0
2017-Sep-16 10:19N 34°09' W 119°12'0 0.0
2017-Sep-16 09:16N 34°09' W 119°12'0 0.0
2017-Sep-16 08:22N 34°09' W 119°12'0 0.0
2017-Sep-16 07:19N 34°09' W 119°12'0 0.0
2017-Sep-16 05:46N 34°09' W 119°12'0 0.0
2017-Sep-16 04:19N 34°09' W 119°12'0 0.0
2017-Sep-16 03:46N 34°09' W 119°12'0 0.0
2017-Sep-16 03:31N 34°09' W 119°12'0 0.0
2017-Sep-16 02:58N 34°09' W 119°12'0 0.1
2017-Sep-16 02:18N 34°09' W 119°12'0 0.0
2017-Sep-16 02:00N 34°09' W 119°12'0 0.0
2017-Sep-16 01:30N 34°09' W 119°12'0 0.1
2017-Sep-16 00:55N 34°09' W 119°12'0 0.0
2017-Sep-16 00:24N 34°09' W 119°12'0 0.0
2017-Sep-16 00:00N 34°09' W 119°12'0 0.1
2017-Sep-15 23:14N 34°09' W 119°12'0 0.0
2017-Sep-15 23:00N 34°09' W 119°12'3 4.7
2017-Sep-15 22:28N 34°07' W 119°14'2 3.8
2017-Sep-15 21:55N 34°05' W 119°14'614.9
2017-Sep-15 21:30N 34°01' W 119°08'713.5
2017-Sep-15 21:00N 33°54' W 119°07'612.0
2017-Sep-15 20:30N 33°49' W 119°08'0 0.8
2017-Sep-15 20:00N 33°48' W 119°09'0 0.6
2017-Sep-15 19:30N 33°48' W 119°09'0 0.5
2017-Sep-15 19:00N 33°48' W 119°09'0 0.5
2017-Sep-15 18:30N 33°48' W 119°09'0 0.5
2017-Sep-15 18:00N 33°47' W 119°09'0 0.5
2017-Sep-15 17:30N 33°47' W 119°09'0 0.4
2017-Sep-15 17:00N 33°47' W 119°09'0 0.3
2017-Sep-15 16:30N 33°47' W 119°09'0 0.3
2017-Sep-15 16:00N 33°47' W 119°09'0 0.4
2017-Sep-15 15:30N 33°46' W 119°09'0 0.5
2017-Sep-15 15:00N 33°46' W 119°09'0 0.6
2017-Sep-15 14:30N 33°46' W 119°09'0 0.6
2017-Sep-15 14:00N 33°46' W 119°09'0 0.6
2017-Sep-15 13:30N 33°45' W 119°10'0 0.6
2017-Sep-15 12:58N 33°45' W 119°10'0 0.6
2017-Sep-15 12:30N 33°45' W 119°10'0 0.6
2017-Sep-15 11:59N 33°44' W 119°10'0 0.6
2017-Sep-15 11:30N 33°44' W 119°10'0 0.3
2017-Sep-15 11:00N 33°44' W 119°10'0 0.2
2017-Sep-15 10:30N 33°44' W 119°10'1 1.5
2017-Sep-15 10:00N 33°44' W 119°09'714.2
2017-Sep-15 09:30N 33°43' W 119°01'714.9
2017-Sep-15 09:00N 33°38' W 118°54'816.0
2017-Sep-15 08:31N 33°30' W 118°50'816.1
2017-Sep-15 08:00N 33°25' W 118°43'916.3
2017-Sep-15 07:27N 33°18' W 118°35'816.4
2017-Sep-15 06:59N 33°14' W 118°28'816.3
2017-Sep-15 06:30N 33°09' W 118°21'816.0
2017-Sep-15 06:00N 33°03' W 118°15'816.2
2017-Sep-15 05:30N 32°57' W 118°08'816.4
2017-Sep-15 05:01N 32°52' W 118°01'816.2
2017-Sep-15 04:31N 32°46' W 117°54'816.2
2017-Sep-15 04:01N 32°40' W 117°47'815.9
2017-Sep-15 03:31N 32°36' W 117°39'816.1
2017-Sep-15 03:00N 32°35' W 117°30'816.2
2017-Sep-15 02:30N 32°35' W 117°20'714.0
2017-Sep-15 02:00N 32°39' W 117°13'4 8.5
2017-Sep-15 01:30N 32°43' W 117°12'510.3
2017-Sep-15 01:00N 32°39' W 117°07'0 0.5
2017-Sep-15 00:28N 32°39' W 117°07'0 0.0
2017-Sep-14 23:55N 32°39' W 117°07'0 0.0
2017-Sep-14 23:25N 32°39' W 117°07'0 0.0
2017-Sep-14 22:58N 32°39' W 117°07'0 0.0
2017-Sep-14 22:28N 32°39' W 117°07'0 0.0
2017-Sep-14 21:55N 32°39' W 117°07'0 0.0
2017-Sep-14 21:25N 32°39' W 117°07'0 0.0
2017-Sep-14 20:52N 32°39' W 117°07'0 0.0
2017-Sep-14 20:25N 32°39' W 117°07'0 0.0
2017-Sep-14 19:55N 32°39' W 117°07'0 0.0
2017-Sep-14 19:28N 32°39' W 117°07'0 0.0
2017-Sep-14 18:55N 32°39' W 117°07'0 0.0
2017-Sep-14 18:25N 32°39' W 117°07'0 0.0
2017-Sep-14 17:49N 32°39' W 117°07'0 0.0
2017-Sep-14 17:25N 32°39' W 117°07'0 0.0
2017-Sep-14 16:55N 32°39' W 117°07'0 0.0
2017-Sep-14 16:13N 32°39' W 117°07'0 0.0
2017-Sep-14 15:55N 32°39' W 117°07'0 0.0
2017-Sep-14 15:25N 32°39' W 117°07'0 0.0
2017-Sep-14 14:58N 32°39' W 117°07'0 0.0
2017-Sep-14 14:28N 32°39' W 117°07'0 0.0
2017-Sep-14 14:01N 32°39' W 117°07'0 0.0
2017-Sep-14 13:31N 32°39' W 117°07'0 0.0
2017-Sep-14 12:57N 32°39' W 117°07'0 0.4
2017-Sep-14 12:30N 32°39' W 117°07'2 3.5
2017-Sep-14 12:00N 32°41' W 117°08'5 9.6
2017-Sep-14 11:31N 32°42' W 117°14'5 9.5
2017-Sep-14 11:01N 32°37' W 117°14'713.9
2017-Sep-14 10:31N 32°35' W 117°22'714.8
2017-Sep-14 10:00N 32°35' W 117°30'815.6
2017-Sep-14 09:31N 32°35' W 117°40'816.1
2017-Sep-14 09:00N 32°35' W 117°49'816.4
2017-Sep-14 08:30N 32°35' W 117°59'816.3
2017-Sep-14 08:00N 32°36' W 118°09'816.2
2017-Sep-14 07:30N 32°36' W 118°18'816.1
2017-Sep-14 06:59N 32°36' W 118°28'1015.9
2017-Sep-14 06:20N 32°36' W 118°40'1016.6
2017-Sep-14 05:45N 32°36' W 118°52'717.2
2017-Sep-14 05:22N 32°36' W 118°60'2517.6
2017-Sep-14 03:58N 32°37' W 119°29'  
Track history (hours):
 
Tides and Currents Weather Stations Pressure Air Temp Water Temp Dewpoint Dewpoint Depression Visibility Wind Speed Wind Dir Waves Ship Positions

Asian Vision

Last reported at 2017-Sep-20 07:18 UTC. Time now 2017-Sep-23 16:28 UTC.
Position N 46°13' W 125°29'.

Length 200 m; draft 7.7 m.

Type: Cargo ship. MMSI: 441992000.

Date/timePositionNaut miles runAvg speedWind from/ knotsBaromVisibWave heightAir tempDewpointWater temp
2017-Sep-20 07:18N 46°13' W 125°29'517.2
2017-Sep-20 07:00N 46°13' W 125°22'816.7
2017-Sep-20 06:30N 46°12' W 125°10'916.6
2017-Sep-20 05:59N 46°12' W 124°58'816.8
2017-Sep-20 05:30N 46°12' W 124°46'816.9
2017-Sep-20 05:00N 46°12' W 124°34'816.4
2017-Sep-20 04:30N 46°12' W 124°22'816.2
2017-Sep-20 04:00N 46°13' W 124°10'612.1
2017-Sep-20 03:30N 46°15' W 124°03'714.8
2017-Sep-20 03:01N 46°11' W 123°53'510.4
2017-Sep-20 02:30N 46°13' W 123°46'917.1
2017-Sep-20 02:01N 46°15' W 123°34'612.8
2017-Sep-20 01:30N 46°14' W 123°25'612.9
2017-Sep-20 01:01N 46°09' W 123°20'816.9
2017-Sep-20 00:30N 46°11' W 123°08'815.7
2017-Sep-20 00:00N 46°07' W 122°59'612.1
2017-Sep-19 23:30N 46°03' W 122°53'612.1
2017-Sep-19 23:00N 45°57' W 122°49'713.1
2017-Sep-19 22:30N 45°51' W 122°47'713.3
2017-Sep-19 22:00N 45°44' W 122°46'510.9
2017-Sep-19 21:31N 45°39' W 122°45'0 0.1
2017-Sep-19 20:58N 45°39' W 122°45'0 0.0
2017-Sep-19 20:28N 45°39' W 122°45'0 0.0
2017-Sep-19 19:58N 45°39' W 122°45'0 0.0
2017-Sep-19 19:28N 45°39' W 122°45'0 0.0
2017-Sep-19 18:58N 45°39' W 122°45'0 0.0
2017-Sep-19 18:28N 45°39' W 122°45'0 0.0
2017-Sep-19 17:58N 45°39' W 122°45'0 0.0
2017-Sep-19 17:28N 45°39' W 122°45'0 0.0
2017-Sep-19 16:55N 45°39' W 122°45'0 0.0
2017-Sep-19 16:25N 45°39' W 122°45'0 0.0
2017-Sep-19 15:52N 45°39' W 122°45'0 0.0
2017-Sep-19 15:28N 45°39' W 122°45'0 0.0
2017-Sep-19 14:58N 45°39' W 122°45'0 0.0
2017-Sep-19 14:22N 45°39' W 122°45'0 0.0
2017-Sep-19 13:58N 45°39' W 122°45'41810.3
2017-Sep-17 21:23N 38°47' W 124°23'1018.3
2017-Sep-17 20:49N 38°39' W 124°16'618.6
2017-Sep-17 20:28N 38°33' W 124°12'818.1
2017-Sep-17 20:00N 38°26' W 124°06'918.2
2017-Sep-17 19:30N 38°18' W 124°01'918.2
2017-Sep-17 19:00N 38°10' W 123°56'918.4
2017-Sep-17 18:30N 38°02' W 123°50'918.2
2017-Sep-17 18:00N 37°54' W 123°44'918.0
2017-Sep-17 17:30N 37°46' W 123°39'917.9
2017-Sep-17 17:00N 37°38' W 123°33'917.7
2017-Sep-17 16:30N 37°30' W 123°28'918.1
2017-Sep-17 16:00N 37°22' W 123°22'918.2
2017-Sep-17 15:30N 37°14' W 123°17'918.1
2017-Sep-17 15:00N 37°06' W 123°11'918.2
2017-Sep-17 14:30N 36°58' W 123°06'918.4
2017-Sep-17 14:00N 36°50' W 123°00'918.4
2017-Sep-17 13:30N 36°42' W 122°54'918.3
2017-Sep-17 13:00N 36°34' W 122°49'918.5
2017-Sep-17 12:30N 36°26' W 122°43'918.4
2017-Sep-17 12:01N 36°18' W 122°38'918.2
2017-Sep-17 11:30N 36°10' W 122°32'918.0
2017-Sep-17 11:00N 36°02' W 122°27'917.9
2017-Sep-17 10:30N 35°55' W 122°22'917.8
2017-Sep-17 10:00N 35°47' W 122°17'1018.0
2017-Sep-17 09:27N 35°38' W 122°10'817.9
2017-Sep-17 09:00N 35°31' W 122°05'2418.8
2017-Sep-17 07:44N 35°10' W 121°51'519.0
2017-Sep-17 07:29N 35°06' W 121°49'918.9
2017-Sep-17 07:00N 34°58' W 121°43'918.5
2017-Sep-17 06:30N 34°50' W 121°38'918.5
2017-Sep-17 06:00N 34°42' W 121°32'918.4
2017-Sep-17 05:31N 34°34' W 121°26'1019.0
2017-Sep-17 05:00N 34°32' W 121°14'919.0
2017-Sep-17 04:31N 34°29' W 121°04'1018.9
2017-Sep-17 04:00N 34°27' W 120°52'918.9
2017-Sep-17 03:30N 34°24' W 120°41'919.0
2017-Sep-17 03:00N 34°21' W 120°30'1019.2
2017-Sep-17 02:30N 34°19' W 120°19'1019.2
2017-Sep-17 02:00N 34°16' W 120°08'1118.4
2017-Sep-17 01:25N 34°14' W 119°55'818.0
2017-Sep-17 01:00N 34°12' W 119°47'918.4
2017-Sep-17 00:30N 34°09' W 119°36'918.4
2017-Sep-17 00:00N 34°07' W 119°25'816.7
2017-Sep-16 23:30N 34°05' W 119°15'4 7.1
2017-Sep-16 22:55N 34°09' W 119°12'0 0.0
2017-Sep-16 22:19N 34°09' W 119°12'0 0.0
2017-Sep-16 21:49N 34°09' W 119°12'0 0.0
2017-Sep-16 21:28N 34°09' W 119°12'0 0.0
2017-Sep-16 20:58N 34°09' W 119°12'0 0.0
2017-Sep-16 19:37N 34°09' W 119°12'0 0.0
2017-Sep-16 19:19N 34°09' W 119°12'0 0.0
2017-Sep-16 18:58N 34°09' W 119°12'0 0.0
2017-Sep-16 18:25N 34°09' W 119°12'0 0.0
2017-Sep-16 17:46N 34°09' W 119°12'0 0.0
2017-Sep-16 16:55N 34°09' W 119°12'0 0.0
2017-Sep-16 16:22N 34°09' W 119°12'0 0.1
2017-Sep-16 15:55N 34°09' W 119°12'0 0.1
2017-Sep-16 15:25N 34°09' W 119°12'0 0.0
2017-Sep-16 13:22N 34°09' W 119°12'0 0.0
2017-Sep-16 12:43N 34°09' W 119°12'0 0.0
2017-Sep-16 12:22N 34°09' W 119°12'0 0.0
2017-Sep-16 11:55N 34°09' W 119°12'0 0.0
2017-Sep-16 11:28N 34°09' W 119°12'0 0.0
2017-Sep-16 10:58N 34°09' W 119°12'0 0.0
2017-Sep-16 10:19N 34°09' W 119°12'0 0.0
2017-Sep-16 09:16N 34°09' W 119°12'0 0.0
2017-Sep-16 08:22N 34°09' W 119°12'0 0.0
2017-Sep-16 07:19N 34°09' W 119°12'0 0.0
2017-Sep-16 05:46N 34°09' W 119°12'0 0.0
2017-Sep-16 04:19N 34°09' W 119°12'0 0.0
2017-Sep-16 03:46N 34°09' W 119°12'0 0.0
2017-Sep-16 03:31N 34°09' W 119°12'0 0.0
2017-Sep-16 02:58N 34°09' W 119°12'0 0.1
2017-Sep-16 02:18N 34°09' W 119°12'0 0.0
2017-Sep-16 02:00N 34°09' W 119°12'0 0.0
2017-Sep-16 01:30N 34°09' W 119°12'0 0.1
2017-Sep-16 00:55N 34°09' W 119°12'0 0.0
2017-Sep-16 00:24N 34°09' W 119°12'0 0.0
2017-Sep-16 00:00N 34°09' W 119°12'0 0.1
2017-Sep-15 23:14N 34°09' W 119°12'0 0.0
2017-Sep-15 23:00N 34°09' W 119°12'3 4.7
2017-Sep-15 22:28N 34°07' W 119°14'2 3.8
2017-Sep-15 21:55N 34°05' W 119°14'614.9
2017-Sep-15 21:30N 34°01' W 119°08'713.5
2017-Sep-15 21:00N 33°54' W 119°07'612.0
2017-Sep-15 20:30N 33°49' W 119°08'0 0.8
2017-Sep-15 20:00N 33°48' W 119°09'0 0.6
2017-Sep-15 19:30N 33°48' W 119°09'0 0.5
2017-Sep-15 19:00N 33°48' W 119°09'0 0.5
2017-Sep-15 18:30N 33°48' W 119°09'0 0.5
2017-Sep-15 18:00N 33°47' W 119°09'0 0.5
2017-Sep-15 17:30N 33°47' W 119°09'0 0.4
2017-Sep-15 17:00N 33°47' W 119°09'0 0.3
2017-Sep-15 16:30N 33°47' W 119°09'0 0.3
2017-Sep-15 16:00N 33°47' W 119°09'0 0.4
2017-Sep-15 15:30N 33°46' W 119°09'0 0.5
2017-Sep-15 15:00N 33°46' W 119°09'0 0.6
2017-Sep-15 14:30N 33°46' W 119°09'0 0.6
2017-Sep-15 14:00N 33°46' W 119°09'0 0.6
2017-Sep-15 13:30N 33°45' W 119°10'0 0.6
2017-Sep-15 12:58N 33°45' W 119°10'0 0.6
2017-Sep-15 12:30N 33°45' W 119°10'0 0.6
2017-Sep-15 11:59N 33°44' W 119°10'0 0.6
2017-Sep-15 11:30N 33°44' W 119°10'0 0.3
2017-Sep-15 11:00N 33°44' W 119°10'0 0.2
2017-Sep-15 10:30N 33°44' W 119°10'1 1.5
2017-Sep-15 10:00N 33°44' W 119°09'714.2
2017-Sep-15 09:30N 33°43' W 119°01'714.9
2017-Sep-15 09:00N 33°38' W 118°54'816.0
2017-Sep-15 08:31N 33°30' W 118°50'816.1
2017-Sep-15 08:00N 33°25' W 118°43'916.3
2017-Sep-15 07:27N 33°18' W 118°35'816.4
2017-Sep-15 06:59N 33°14' W 118°28'816.3
2017-Sep-15 06:30N 33°09' W 118°21'816.0
2017-Sep-15 06:00N 33°03' W 118°15'816.2
2017-Sep-15 05:30N 32°57' W 118°08'816.4
2017-Sep-15 05:01N 32°52' W 118°01'816.2
2017-Sep-15 04:31N 32°46' W 117°54'816.2
2017-Sep-15 04:01N 32°40' W 117°47'815.9
2017-Sep-15 03:31N 32°36' W 117°39'816.1
2017-Sep-15 03:00N 32°35' W 117°30'816.2
2017-Sep-15 02:30N 32°35' W 117°20'714.0
2017-Sep-15 02:00N 32°39' W 117°13'4 8.5
2017-Sep-15 01:30N 32°43' W 117°12'510.3
2017-Sep-15 01:00N 32°39' W 117°07'0 0.5
2017-Sep-15 00:28N 32°39' W 117°07'0 0.0
2017-Sep-14 23:55N 32°39' W 117°07'0 0.0
2017-Sep-14 23:25N 32°39' W 117°07'0 0.0
2017-Sep-14 22:58N 32°39' W 117°07'0 0.0
2017-Sep-14 22:28N 32°39' W 117°07'0 0.0
2017-Sep-14 21:55N 32°39' W 117°07'0 0.0
2017-Sep-14 21:25N 32°39' W 117°07'0 0.0
2017-Sep-14 20:52N 32°39' W 117°07'0 0.0
2017-Sep-14 20:25N 32°39' W 117°07'0 0.0
2017-Sep-14 19:55N 32°39' W 117°07'0 0.0
2017-Sep-14 19:28N 32°39' W 117°07'0 0.0
2017-Sep-14 18:55N 32°39' W 117°07'0 0.0
2017-Sep-14 18:25N 32°39' W 117°07'0 0.0
2017-Sep-14 17:49N 32°39' W 117°07'0 0.0
2017-Sep-14 17:25N 32°39' W 117°07'0 0.0
2017-Sep-14 16:55N 32°39' W 117°07'0 0.0
2017-Sep-14 16:13N 32°39' W 117°07'0 0.0
2017-Sep-14 15:55N 32°39' W 117°07'0 0.0
2017-Sep-14 15:25N 32°39' W 117°07'0 0.0
2017-Sep-14 14:58N 32°39' W 117°07'0 0.0
2017-Sep-14 14:28N 32°39' W 117°07'0 0.0
2017-Sep-14 14:01N 32°39' W 117°07'0 0.0
2017-Sep-14 13:31N 32°39' W 117°07'0 0.0
2017-Sep-14 12:57N 32°39' W 117°07'0 0.4
2017-Sep-14 12:30N 32°39' W 117°07'2 3.5
2017-Sep-14 12:00N 32°41' W 117°08'5 9.6
2017-Sep-14 11:31N 32°42' W 117°14'5 9.5
2017-Sep-14 11:01N 32°37' W 117°14'713.9
2017-Sep-14 10:31N 32°35' W 117°22'714.8
2017-Sep-14 10:00N 32°35' W 117°30'815.6
2017-Sep-14 09:31N 32°35' W 117°40'816.1
2017-Sep-14 09:00N 32°35' W 117°49'816.4
2017-Sep-14 08:30N 32°35' W 117°59'816.3
2017-Sep-14 08:00N 32°36' W 118°09'816.2
2017-Sep-14 07:30N 32°36' W 118°18'816.1
2017-Sep-14 06:59N 32°36' W 118°28'1015.9
2017-Sep-14 06:20N 32°36' W 118°40'1016.6
2017-Sep-14 05:45N 32°36' W 118°52'717.2
2017-Sep-14 05:22N 32°36' W 118°60'2517.6
2017-Sep-14 03:58N 32°37' W 119°29'  

Dump ship's entire track history